createdAt,value
2023-12-29T00:03:52.995Z,71
2023-12-29T00:15:53.162Z,71
2023-12-29T00:27:53.149Z,71
2023-12-29T00:39:53.095Z,71
2023-12-29T00:51:53.035Z,71
2023-12-29T01:03:53.480Z,70
2023-12-29T01:15:53.184Z,70.5
2023-12-29T01:27:53.119Z,70.5
2023-12-29T01:39:53.467Z,71
2023-12-29T01:51:53.263Z,71
2023-12-29T02:03:53.206Z,71
2023-12-29T02:15:53.229Z,71
2023-12-29T02:27:53.308Z,71.5
2023-12-29T02:39:53.332Z,71.5
2023-12-29T02:51:53.213Z,71.5
2023-12-29T03:03:53.247Z,71.5
2023-12-29T03:15:53.356Z,71.5
2023-12-29T03:27:53.329Z,71.5
2023-12-29T03:39:53.486Z,71.5
2023-12-29T03:51:53.437Z,71.5
2023-12-29T04:03:53.400Z,71.5
2023-12-29T04:15:53.347Z,71.5
2023-12-29T04:27:53.334Z,71.5
2023-12-29T04:39:53.459Z,71
2023-12-29T04:51:53.390Z,71
2023-12-29T05:03:53.398Z,71
2023-12-29T05:15:53.418Z,71
2023-12-29T05:27:53.518Z,59.5
2023-12-29T05:39:53.386Z,60.5
2023-12-29T05:51:53.402Z,62.5
2023-12-29T06:03:53.336Z,64
2023-12-29T06:15:53.513Z,66
2023-12-29T06:27:53.507Z,67
2023-12-29T06:39:53.401Z,65
2023-12-29T06:51:53.580Z,56.5
2023-12-29T07:03:53.542Z,59
2023-12-29T07:15:53.462Z,61.5
2023-12-29T07:27:53.473Z,63.5
2023-12-29T07:39:53.591Z,65.5
2023-12-29T07:51:53.545Z,66
2023-12-29T08:03:53.572Z,57.5
2023-12-29T08:15:53.667Z,57.5
2023-12-29T08:27:54.367Z,60.5
2023-12-29T08:39:54.040Z,62.5
2023-12-29T08:51:53.557Z,64.5
2023-12-29T09:03:53.787Z,66
2023-12-29T09:15:53.601Z,67
2023-12-29T09:27:53.835Z,67.5
2023-12-29T09:39:53.635Z,68
2023-12-29T09:51:53.767Z,68.5
2023-12-29T10:03:53.712Z,68.5
2023-12-29T10:15:53.716Z,68.5
2023-12-29T10:27:53.820Z,69
2023-12-29T10:39:53.801Z,69
2023-12-29T10:51:53.748Z,69.5
2023-12-29T11:03:53.698Z,69.5
2023-12-29T11:15:53.841Z,69.5
2023-12-29T11:27:53.852Z,69.5
2023-12-29T11:39:53.700Z,69
2023-12-29T11:51:53.947Z,69
2023-12-29T12:03:53.879Z,68.5
2023-12-29T12:15:53.847Z,63.5
2023-12-29T12:27:53.827Z,65.5
2023-12-29T12:39:54.158Z,63.5
2023-12-29T12:51:53.892Z,65
2023-12-29T13:03:54.363Z,67
2023-12-29T13:15:53.825Z,68.5
2023-12-29T13:27:53.981Z,69.5
2023-12-29T13:39:53.956Z,70.5
2023-12-29T13:51:53.881Z,71
2023-12-29T14:03:53.899Z,71.5
2023-12-29T14:15:53.889Z,62
2023-12-29T14:27:53.829Z,60
2023-12-29T14:39:54.041Z,62.5
2023-12-29T14:51:53.969Z,65
2023-12-29T15:03:53.993Z,66.5
2023-12-29T15:15:53.954Z,68.5
2023-12-29T15:27:54.100Z,69
2023-12-29T15:39:54.002Z,70
2023-12-29T15:51:54.011Z,70.5
2023-12-29T16:03:54.248Z,71
2023-12-29T16:15:54.083Z,71.5
2023-12-29T16:27:54.472Z,70
2023-12-29T16:39:56.277Z,59.5
2023-12-29T16:51:54.363Z,60
2023-12-29T17:03:54.124Z,62.5
2023-12-29T17:15:54.059Z,65
2023-12-29T17:27:54.069Z,58
2023-12-29T17:39:54.194Z,58.5
2023-12-29T17:51:54.174Z,60.5
2023-12-29T18:03:54.131Z,63
2023-12-29T18:15:54.307Z,55.5
2023-12-29T18:27:54.250Z,56.5
2023-12-29T18:39:54.222Z,60.5
2023-12-29T18:51:54.119Z,60
2023-12-29T19:03:54.369Z,56
2023-12-29T19:15:54.334Z,58.5
2023-12-29T19:27:54.207Z,61.5
2023-12-29T19:39:54.137Z,60
2023-12-29T19:51:54.565Z,54
2023-12-29T20:03:54.341Z,57
2023-12-29T20:15:54.251Z,59.5
2023-12-29T20:27:54.386Z,62
2023-12-29T20:39:54.344Z,63.5
2023-12-29T20:51:54.313Z,65
2023-12-29T21:03:54.349Z,57.5
2023-12-29T21:15:54.395Z,57
2023-12-29T21:27:54.592Z,59.5
2023-12-29T21:39:54.321Z,61.5
2023-12-29T21:51:54.505Z,63.5
2023-12-29T22:03:54.469Z,65
2023-12-29T22:15:54.615Z,66
2023-12-29T22:27:54.383Z,67
2023-12-29T22:39:54.501Z,67.5
2023-12-29T22:51:54.497Z,68
2023-12-29T23:03:54.631Z,68.5
2023-12-29T23:15:54.392Z,68.5
2023-12-29T23:27:54.624Z,69
2023-12-29T23:39:54.493Z,69
2023-12-29T23:51:54.512Z,69.5
